DRS weather

Dresden Airport
Dresden, Saxony, Germany

Public forecast

Using degrees Celsius for public forecast. Weather courtesy of forecast.io.

METAR (pilot weather report)

Retrieved 2019/05/25 17:20 UTC (0 seconds ago):

EDDC 251720Z 31006KT 280V340 9999 FEW038 17/08 Q1014 NOSIG

TAF (pilot weather forecast)

Retrieved 2019/05/25 12:27 UTC (5 hours ago):

TAF EDDC 251100Z 2512/2612 30005KT CAVOK BECMG 2521/2524 22005KT